Olmstedville, New York
Current Conditions -  °F | °C
As of 11:53 PM on Tuesday 25 Nov 2014 (Local Time) from KGFL Reporting Station
Scattered Clouds Scattered Clouds  
Wind Chill: 32°   Ceiling: Unl
Heat Index: 32°   Visibility: 10mi
Dew Point: 27°   Wind: 3mph
Humidity: 82%   Direction: 280°W
Pressure: 30.15"   Gusts: NA
Location:  43.77°N, 73.93°W
Report Text: KGFL 260453Z AUTO 28003KT 10SM SCT049 00/M03 A3015 RMK AO2 SLP217 T00001028 401501017
Loading
Personal Weather Stations






























Interactive Weather Map New forecast layout! Learn more

10-Day Weather Forecast

Advertisements
Track Severe Weather on mobile